Time;durP1;ratioP1;P1;durP2;ratioP2;P2;SDS_P1;SDS_P2;PMS_P1;PMS_P2;Temp;Humidity;BMP_temperature;BMP_pressure;BME280_temperature;BME280_humidity;BME280_pressure;Samples;Min_cycle;Max_cycle;Signal;HPM_P1;HPM_P2
2022/03/16 00:01:26;;;;;;;116.05;82.03;;;;;;;;;;5133158;27;20019;-78
2022/03/16 00:03:52;;;;;;;98.93;72.65;;;;;;;;;;5133344;27;20087;-79
2022/03/16 00:06:18;;;;;;;100.47;68.65;;;;;;;;;;5110005;27;20082;-78
2022/03/16 00:08:44;;;;;;;95.35;64.50;;;;;;;;;;5096794;28;20019;-78
2022/03/16 00:11:10;;;;;;;88.80;61.28;;;;;;;;;;5093814;28;20044;-78
2022/03/16 00:13:36;;;;;;;84.53;59.20;;;;;;;;;;5112458;28;20031;-78
2022/03/16 00:16:02;;;;;;;88.60;60.75;;;;;;;;;;5112347;28;20023;-77
2022/03/16 00:18:28;;;;;;;148.95;95.45;;;;;;;;;;5094005;28;20024;-76
2022/03/16 00:20:55;;;;;;;180.88;117.55;;;;;;;;;;5112540;28;20102;-77
2022/03/16 00:23:21;;;;;;;151.80;91.70;;;;;;;;;;5094187;28;20550;-77
2022/03/16 00:25:47;;;;;;;135.90;92.55;;;;;;;;;;5112523;28;20073;-77
2022/03/16 00:28:14;;;;;;;122.40;87.75;;;;;;;;;;5114434;27;20156;-78
2022/03/16 00:30:40;;;;;;;127.80;86.30;;;;;;;;;;5132984;27;20026;-79
2022/03/16 00:33:06;;;;;;;135.30;90.63;;;;;;;;;;5133269;27;20023;-77
2022/03/16 00:35:32;;;;;;;132.00;90.75;;;;;;;;;;5114337;28;20110;-79
2022/03/16 00:37:58;;;;;;;132.75;88.93;;;;;;;;;;5114572;28;20095;-76
2022/03/16 00:40:24;;;;;;;138.98;92.13;;;;;;;;;;5114134;28;20047;-78
2022/03/16 00:42:50;;;;;;;137.30;92.07;;;;;;;;;;5114417;28;20031;-77
2022/03/16 00:45:16;;;;;;;140.30;96.60;;;;;;;;;;5134238;27;20019;-78
2022/03/16 00:47:42;;;;;;;134.80;94.57;;;;;;;;;;5135923;27;20026;-78
2022/03/16 00:50:08;;;;;;;136.43;91.15;;;;;;;;;;5117756;27;20028;-77
2022/03/16 00:52:34;;;;;;;143.68;96.32;;;;;;;;;;5116759;28;20089;-77
2022/03/16 00:55:00;;;;;;;126.28;85.43;;;;;;;;;;5098175;28;20026;-78
2022/03/16 00:57:26;;;;;;;127.60;88.47;;;;;;;;;;5116705;28;20047;-77
2022/03/16 00:59:52;;;;;;;121.60;83.72;;;;;;;;;;5118428;27;20043;-77
2022/03/16 01:02:18;;;;;;;120.93;82.13;;;;;;;;;;5129618;27;20393;-76
2022/03/16 01:04:45;;;;;;;109.43;79.55;;;;;;;;;;5116436;28;20019;-76
2022/03/16 01:07:11;;;;;;;114.85;78.75;;;;;;;;;;5097937;28;20141;-78
2022/03/16 01:09:37;;;;;;;127.18;80.88;;;;;;;;;;5097905;28;20027;-77
2022/03/16 01:12:03;;;;;;;112.30;79.22;;;;;;;;;;5097759;28;20026;-77
2022/03/16 01:14:29;;;;;;;107.82;79.13;;;;;;;;;;5116172;28;20019;-78
2022/03/16 01:16:55;;;;;;;113.13;80.70;;;;;;;;;;5116237;28;20036;-77
2022/03/16 01:19:21;;;;;;;110.05;81.00;;;;;;;;;;5097675;28;20038;-77
2022/03/16 01:21:48;;;;;;;107.97;75.25;;;;;;;;;;5115422;28;20024;-78
2022/03/16 01:24:14;;;;;;;100.53;71.57;;;;;;;;;;5100771;28;20048;-77
2022/03/16 01:26:40;;;;;;;111.60;75.50;;;;;;;;;;5115057;28;20016;-77
2022/03/16 01:29:06;;;;;;;117.15;82.18;;;;;;;;;;5115540;27;20019;-77
2022/03/16 01:31:32;;;;;;;129.80;80.50;;;;;;;;;;5097223;28;20103;-76
2022/03/16 01:33:58;;;;;;;121.78;84.50;;;;;;;;;;5115814;28;20026;-77
2022/03/16 01:36:25;;;;;;;114.90;77.53;;;;;;;;;;5115662;28;20534;-77
2022/03/16 01:38:51;;;;;;;104.28;73.38;;;;;;;;;;5096929;28;20056;-78
2022/03/16 01:41:17;;;;;;;91.55;60.35;;;;;;;;;;5097279;28;20047;-77
2022/03/16 01:43:43;;;;;;;111.30;71.85;;;;;;;;;;5115302;28;20478;-78
2022/03/16 01:46:09;;;;;;;99.13;70.53;;;;;;;;;;5096992;28;20020;-77
2022/03/16 01:48:35;;;;;;;97.53;63.63;;;;;;;;;;5115345;28;20090;-76
2022/03/16 01:51:01;;;;;;;83.47;58.35;;;;;;;;;;5115698;28;20016;-77
2022/03/16 01:53:27;;;;;;;88.65;64.47;;;;;;;;;;5096758;28;20030;-79
2022/03/16 01:55:54;;;;;;;99.85;68.15;;;;;;;;;;5115223;28;20020;-77
2022/03/16 01:58:20;;;;;;;113.32;74.75;;;;;;;;;;5114418;28;20466;-79
2022/03/16 02:00:46;;;;;;;130.40;84.68;;;;;;;;;;5096755;28;20086;-78
2022/03/16 02:03:12;;;;;;;134.07;85.65;;;;;;;;;;5114737;28;20037;-77
2022/03/16 02:05:39;;;;;;;131.30;89.28;;;;;;;;;;5115253;28;20505;-78
2022/03/16 02:08:05;;;;;;;133.02;85.50;;;;;;;;;;5096658;28;20027;-78
2022/03/16 02:10:35;;;;;;;138.65;92.95;;;;;;;;;;5096814;28;20020;-78
2022/03/16 02:13:02;;;;;;;149.13;94.72;;;;;;;;;;5115159;28;20425;-77
2022/03/16 02:15:28;;;;;;;131.45;91.30;;;;;;;;;;5114485;28;20072;-78
2022/03/16 02:17:57;;;;;;;138.90;90.53;;;;;;;;;;5096501;28;20019;-78
2022/03/16 02:20:24;;;;;;;135.02;90.10;;;;;;;;;;5114403;28;20409;-77
2022/03/16 02:22:56;;;;;;;126.45;83.20;;;;;;;;;;5114762;28;20490;-78
2022/03/16 02:25:22;;;;;;;127.15;83.15;;;;;;;;;;5114985;28;20070;-78
2022/03/16 02:27:49;;;;;;;128.20;90.25;;;;;;;;;;5114677;28;20020;-77
2022/03/16 02:30:15;;;;;;;124.53;85.55;;;;;;;;;;5115267;27;20038;-78
2022/03/16 02:32:41;;;;;;;129.68;85.28;;;;;;;;;;5116704;27;20024;-80
2022/03/16 02:35:07;;;;;;;129.30;91.57;;;;;;;;;;5116581;27;20373;-78
2022/03/16 02:37:36;;;;;;;140.38;97.20;;;;;;;;;;5135246;27;20019;-78
2022/03/16 02:40:02;;;;;;;134.98;88.30;;;;;;;;;;5116302;27;20063;-78
2022/03/16 02:42:28;;;;;;;119.15;81.72;;;;;;;;;;5135000;27;20030;-77
2022/03/16 02:44:54;;;;;;;121.53;80.95;;;;;;;;;;5116302;27;20067;-78
2022/03/16 02:47:20;;;;;;;132.43;91.10;;;;;;;;;;5134547;27;20031;-78
2022/03/16 02:49:48;;;;;;;125.32;87.70;;;;;;;;;;5116296;27;20377;-78
2022/03/16 02:52:14;;;;;;;129.00;88.88;;;;;;;;;;5116321;27;20027;-77
2022/03/16 02:54:41;;;;;;;137.20;92.82;;;;;;;;;;5134721;27;20042;-77
2022/03/16 02:57:07;;;;;;;131.60;92.30;;;;;;;;;;5134658;27;20074;-77
2022/03/16 02:59:34;;;;;;;132.55;90.20;;;;;;;;;;5116147;27;20903;-78
2022/03/16 03:02:00;;;;;;;137.85;95.80;;;;;;;;;;5116076;27;20058;-78
2022/03/16 03:04:26;;;;;;;136.43;93.07;;;;;;;;;;5134793;27;20023;-77
2022/03/16 03:06:52;;;;;;;138.20;92.60;;;;;;;;;;5115927;27;20023;-79
2022/03/16 03:09:18;;;;;;;125.90;91.75;;;;;;;;;;5133657;27;20019;-79
2022/03/16 03:11:44;;;;;;;127.45;88.63;;;;;;;;;;5115665;27;20022;-78
2022/03/16 03:14:10;;;;;;;127.45;90.85;;;;;;;;;;5115848;27;20032;-77
2022/03/16 03:16:36;;;;;;;111.65;82.70;;;;;;;;;;5115785;27;20058;-78
2022/03/16 03:19:02;;;;;;;116.03;79.72;;;;;;;;;;5133792;27;20035;-77
2022/03/16 03:21:28;;;;;;;112.25;72.90;;;;;;;;;;5133821;27;20419;-77
2022/03/16 03:23:54;;;;;;;104.90;73.18;;;;;;;;;;5134095;27;20019;-77
2022/03/16 03:26:20;;;;;;;97.22;66.13;;;;;;;;;;5134386;27;20024;-77
2022/03/16 03:28:46;;;;;;;107.25;69.22;;;;;;;;;;5127015;27;20015;-77
2022/03/16 03:31:12;;;;;;;90.75;62.88;;;;;;;;;;5113411;28;20030;-77
2022/03/16 03:33:38;;;;;;;97.38;69.10;;;;;;;;;;5095110;28;20020;-77
2022/03/16 03:36:05;;;;;;;106.22;70.90;;;;;;;;;;5113037;28;20020;-77
2022/03/16 03:38:31;;;;;;;119.07;81.32;;;;;;;;;;5094745;28;20016;-77
2022/03/16 03:40:57;;;;;;;121.93;81.82;;;;;;;;;;5094856;28;20106;-77
2022/03/16 03:43:23;;;;;;;112.47;74.63;;;;;;;;;;5112939;28;20439;-77
2022/03/16 03:45:49;;;;;;;118.03;75.50;;;;;;;;;;5113007;28;20015;-76
2022/03/16 03:48:15;;;;;;;111.45;76.97;;;;;;;;;;5094844;28;20507;-77
2022/03/16 03:50:41;;;;;;;107.68;76.28;;;;;;;;;;5094746;28;20118;-77
2022/03/16 03:53:07;;;;;;;120.50;79.28;;;;;;;;;;5094769;28;20019;-76
2022/03/16 03:55:33;;;;;;;114.45;77.53;;;;;;;;;;5094686;28;20436;-76
2022/03/16 03:57:59;;;;;;;106.82;74.05;;;;;;;;;;5112644;28;20436;-77
2022/03/16 04:00:25;;;;;;;114.80;79.95;;;;;;;;;;5112524;28;20035;-77
2022/03/16 04:02:52;;;;;;;121.78;78.50;;;;;;;;;;5094484;28;20024;-77
2022/03/16 04:05:18;;;;;;;112.25;73.63;;;;;;;;;;5112879;28;20080;-77
2022/03/16 04:07:45;;;;;;;103.55;72.28;;;;;;;;;;5113101;28;20069;-76
2022/03/16 04:10:11;;;;;;;104.63;72.15;;;;;;;;;;5112738;28;20072;-77
2022/03/16 04:12:37;;;;;;;90.82;61.50;;;;;;;;;;5094065;28;20024;-76
2022/03/16 04:15:04;;;;;;;99.88;61.67;;;;;;;;;;5112902;28;20024;-76
2022/03/16 04:17:30;;;;;;;95.22;62.70;;;;;;;;;;5094310;28;20112;-77
2022/03/16 04:19:56;;;;;;;99.32;70.55;;;;;;;;;;5112075;28;20062;-76
2022/03/16 04:22:22;;;;;;;98.72;65.07;;;;;;;;;;5112330;28;20047;-77
2022/03/16 04:24:48;;;;;;;112.13;68.32;;;;;;;;;;5112474;28;20027;-79
2022/03/16 04:27:14;;;;;;;105.15;66.70;;;;;;;;;;5112524;28;20027;-76
2022/03/16 04:29:40;;;;;;;104.30;70.18;;;;;;;;;;5126719;27;20053;-78
2022/03/16 04:32:07;;;;;;;94.55;66.18;;;;;;;;;;5132887;27;20068;-76
2022/03/16 04:34:33;;;;;;;103.57;62.72;;;;;;;;;;5114573;28;20023;-76
2022/03/16 04:36:59;;;;;;;95.07;63.25;;;;;;;;;;5132637;28;20110;-76
2022/03/16 04:39:25;;;;;;;91.50;63.65;;;;;;;;;;5110744;28;20543;-77
2022/03/16 04:41:52;;;;;;;101.63;65.35;;;;;;;;;;5112191;28;20074;-76
2022/03/16 04:44:18;;;;;;;90.30;63.20;;;;;;;;;;5111077;28;20031;-76
2022/03/16 04:46:44;;;;;;;108.35;66.05;;;;;;;;;;5112503;28;20444;-76
2022/03/16 04:49:10;;;;;;;96.97;61.67;;;;;;;;;;5112263;28;20408;-76
2022/03/16 04:51:36;;;;;;;106.32;67.93;;;;;;;;;;5112245;28;20050;-75
2022/03/16 04:54:03;;;;;;;111.13;72.80;;;;;;;;;;5110862;28;20024;-76
2022/03/16 04:56:29;;;;;;;115.50;77.25;;;;;;;;;;5097063;28;20029;-76
2022/03/16 04:58:55;;;;;;;134.57;81.07;;;;;;;;;;5111927;28;20122;-76
2022/03/16 05:01:21;;;;;;;120.90;81.18;;;;;;;;;;5096119;28;20020;-76
2022/03/16 05:03:47;;;;;;;135.75;88.13;;;;;;;;;;5090105;28;20031;-78
2022/03/16 05:06:13;;;;;;;118.97;82.47;;;;;;;;;;5089721;28;20091;-77
2022/03/16 05:08:39;;;;;;;114.22;78.75;;;;;;;;;;5091339;28;20094;-79
2022/03/16 05:11:05;;;;;;;104.43;73.55;;;;;;;;;;5091322;28;20035;-78
2022/03/16 05:13:31;;;;;;;114.15;78.63;;;;;;;;;;5093691;28;20360;-78
2022/03/16 05:15:57;;;;;;;120.22;79.15;;;;;;;;;;5091080;28;20435;-80
2022/03/16 05:18:23;;;;;;;123.88;76.65;;;;;;;;;;5089579;28;20355;-78
2022/03/16 05:20:50;;;;;;;102.55;75.05;;;;;;;;;;5090875;28;20032;-78
2022/03/16 05:23:16;;;;;;;149.15;90.95;;;;;;;;;;5091154;28;20028;-78
2022/03/16 05:25:42;;;;;;;124.30;77.32;;;;;;;;;;5089656;28;20020;-79
2022/03/16 05:28:08;;;;;;;124.97;85.47;;;;;;;;;;5090532;28;20024;-77
2022/03/16 05:30:34;;;;;;;116.47;74.88;;;;;;;;;;5091333;28;20028;-79
2022/03/16 05:33:01;;;;;;;109.63;75.68;;;;;;;;;;5092409;28;20020;-79
2022/03/16 05:35:28;;;;;;;121.75;81.88;;;;;;;;;;5094074;28;20745;-78
2022/03/16 05:37:54;;;;;;;134.70;90.55;;;;;;;;;;5093935;28;20394;-78
2022/03/16 05:40:20;;;;;;;128.52;84.10;;;;;;;;;;5111439;27;20048;-78
2022/03/16 05:42:46;;;;;;;115.28;80.70;;;;;;;;;;5117306;27;20077;-78
2022/03/16 05:45:12;;;;;;;125.93;79.90;;;;;;;;;;5117644;27;20023;-79
2022/03/16 05:47:38;;;;;;;113.65;76.38;;;;;;;;;;5115832;28;20012;-79
2022/03/16 05:50:05;;;;;;;119.20;75.53;;;;;;;;;;5115685;27;20085;-78
2022/03/16 05:52:31;;;;;;;117.78;79.90;;;;;;;;;;5115440;27;20543;-79
2022/03/16 05:54:58;;;;;;;124.40;80.88;;;;;;;;;;5114070;28;20447;-78
2022/03/16 05:57:24;;;;;;;128.52;84.78;;;;;;;;;;5117172;27;20055;-78
2022/03/16 05:59:51;;;;;;;138.23;89.57;;;;;;;;;;5115215;28;20040;-77
2022/03/16 06:02:17;;;;;;;145.10;95.70;;;;;;;;;;5096707;28;20024;-78
2022/03/16 06:04:43;;;;;;;181.57;120.88;;;;;;;;;;5115192;28;20012;-78
2022/03/16 06:07:10;;;;;;;164.00;104.60;;;;;;;;;;5115096;28;20024;-79
2022/03/16 06:09:36;;;;;;;120.03;74.47;;;;;;;;;;5113693;27;20041;-78
2022/03/16 06:12:03;;;;;;;147.75;96.68;;;;;;;;;;5096752;28;20478;-78
2022/03/16 06:14:29;;;;;;;164.23;105.22;;;;;;;;;;5115452;28;20564;-80
2022/03/16 06:16:56;;;;;;;161.50;107.05;;;;;;;;;;5096405;28;20016;-80
2022/03/16 06:19:22;;;;;;;179.55;124.25;;;;;;;;;;5095795;28;20031;-79
2022/03/16 06:21:48;;;;;;;172.75;111.22;;;;;;;;;;5121286;27;20026;-78
2022/03/16 06:24:14;;;;;;;142.07;98.50;;;;;;;;;;5116670;27;20027;-79
2022/03/16 06:26:41;;;;;;;145.40;98.55;;;;;;;;;;5116255;27;20523;-78
2022/03/16 06:29:07;;;;;;;138.60;94.22;;;;;;;;;;5123938;27;20027;-82
2022/03/16 06:31:33;;;;;;;139.10;92.70;;;;;;;;;;5116149;27;20023;-90
2022/03/16 06:34:00;;;;;;;146.00;95.03;;;;;;;;;;5113301;27;20028;-82
2022/03/16 06:36:26;;;;;;;182.30;98.57;;;;;;;;;;5117692;27;20031;-84
2022/03/16 06:38:55;;;;;;;155.13;95.13;;;;;;;;;;5116222;27;20073;-81
2022/03/16 06:41:21;;;;;;;148.93;99.72;;;;;;;;;;5114274;27;20023;-77
2022/03/16 06:43:48;;;;;;;158.07;101.60;;;;;;;;;;5116706;27;20019;-77
2022/03/16 06:46:14;;;;;;;157.88;106.97;;;;;;;;;;5114219;28;20027;-79
2022/03/16 06:48:40;;;;;;;175.18;102.15;;;;;;;;;;5095866;28;20522;-77
2022/03/16 06:51:06;;;;;;;163.15;105.53;;;;;;;;;;5095628;28;20016;-78
2022/03/16 06:53:33;;;;;;;266.85;160.15;;;;;;;;;;5114118;28;20035;-77
2022/03/16 06:55:59;;;;;;;233.45;145.25;;;;;;;;;;5114254;28;20023;-76
2022/03/16 06:58:25;;;;;;;153.27;110.88;;;;;;;;;;5121565;27;20020;-77
2022/03/16 07:00:51;;;;;;;167.10;117.97;;;;;;;;;;5115762;27;20114;-78
2022/03/16 07:03:17;;;;;;;152.77;105.72;;;;;;;;;;5134475;27;20026;-77
2022/03/16 07:05:43;;;;;;;151.68;101.97;;;;;;;;;;5105012;28;20019;-77
2022/03/16 07:08:10;;;;;;;165.63;117.70;;;;;;;;;;5102251;27;20019;-77
2022/03/16 07:10:37;;;;;;;171.60;113.35;;;;;;;;;;5116222;27;20397;-78
2022/03/16 07:13:04;;;;;;;181.23;109.65;;;;;;;;;;5113310;28;20497;-78
2022/03/16 07:15:32;;;;;;;140.13;97.78;;;;;;;;;;5095350;28;20031;-77
2022/03/16 07:17:58;;;;;;;134.32;95.38;;;;;;;;;;5113654;28;20465;-78
2022/03/16 07:20:24;;;;;;;138.13;92.55;;;;;;;;;;5095045;28;20447;-76
2022/03/16 07:23:04;;;;;;;160.98;91.05;;;;;;;;;;5113368;28;20099;-76
2022/03/16 07:25:30;;;;;;;131.30;89.00;;;;;;;;;;5113794;28;20094;-76
2022/03/16 07:27:56;;;;;;;133.90;85.80;;;;;;;;;;5113247;28;20035;-77
2022/03/16 07:30:22;;;;;;;132.70;85.60;;;;;;;;;;5114905;27;20034;-78
2022/03/16 07:32:48;;;;;;;114.20;79.88;;;;;;;;;;5115307;27;20042;-76
2022/03/16 07:35:14;;;;;;;108.35;74.82;;;;;;;;;;5133644;27;20019;-77
2022/03/16 07:37:44;;;;;;;116.38;77.82;;;;;;;;;;5115282;27;20023;-76
2022/03/16 07:40:11;;;;;;;123.95;81.78;;;;;;;;;;5114943;27;20050;-76
2022/03/16 07:42:37;;;;;;;125.50;79.22;;;;;;;;;;5133748;27;20015;-77
2022/03/16 07:45:06;;;;;;;105.50;73.13;;;;;;;;;;5133458;27;20060;-77
2022/03/16 07:47:33;;;;;;;124.40;75.53;;;;;;;;;;5133348;27;20019;-77
2022/03/16 07:49:59;;;;;;;126.13;75.60;;;;;;;;;;5133120;27;20023;-78
2022/03/16 07:52:25;;;;;;;108.05;69.22;;;;;;;;;;5115027;27;20409;-76
2022/03/16 07:54:52;;;;;;;120.07;78.20;;;;;;;;;;5132727;27;20015;-79
2022/03/16 07:57:18;;;;;;;111.28;70.70;;;;;;;;;;5132956;27;20453;-77
2022/03/16 07:59:44;;;;;;;127.20;74.95;;;;;;;;;;5114640;27;20035;-76
2022/03/16 08:02:15;;;;;;;116.43;76.15;;;;;;;;;;5103933;28;20027;-76
2022/03/16 08:04:41;;;;;;;114.78;74.85;;;;;;;;;;5093470;28;20023;-77
2022/03/16 08:07:09;;;;;;;82.07;46.28;;;;;;;;;;5130746;27;20094;-77
2022/03/16 08:09:35;;;;;;;67.18;45.92;;;;;;;;;;5114557;27;20023;-77
2022/03/16 08:12:01;;;;;;;72.70;43.60;;;;;;;;;;5132820;27;20042;-78
2022/03/16 08:14:27;;;;;;;75.25;52.47;;;;;;;;;;5132512;27;20023;-76
2022/03/16 08:16:53;;;;;;;110.40;58.88;;;;;;;;;;5107712;27;20024;-77
2022/03/16 08:19:21;;;;;;;116.03;68.10;;;;;;;;;;5124090;27;20027;-77
2022/03/16 08:21:47;;;;;;;96.22;59.80;;;;;;;;;;5094592;28;20038;-78
2022/03/16 08:24:14;;;;;;;109.18;56.42;;;;;;;;;;5093930;28;20020;-77
2022/03/16 08:26:40;;;;;;;78.32;51.95;;;;;;;;;;5093462;28;20026;-76
2022/03/16 08:29:07;;;;;;;73.15;48.70;;;;;;;;;;5113695;28;20095;-77
2022/03/16 08:31:33;;;;;;;91.05;59.40;;;;;;;;;;5111695;28;20020;-77
2022/03/16 08:34:01;;;;;;;88.15;56.05;;;;;;;;;;5111766;28;20013;-77
2022/03/16 08:36:27;;;;;;;90.30;63.03;;;;;;;;;;5111478;28;20092;-77
2022/03/16 08:38:54;;;;;;;79.85;58.10;;;;;;;;;;5111692;28;20044;-77
2022/03/16 08:41:20;;;;;;;79.55;59.83;;;;;;;;;;5114188;28;20016;-76
2022/03/16 08:43:46;;;;;;;113.95;74.75;;;;;;;;;;5111056;28;20038;-77
2022/03/16 08:46:12;;;;;;;106.50;63.65;;;;;;;;;;5101594;28;20385;-77
2022/03/16 08:48:38;;;;;;;85.97;51.08;;;;;;;;;;5110268;28;20094;-78
2022/03/16 08:51:08;;;;;;;71.93;49.58;;;;;;;;;;5115443;28;20102;-77
2022/03/16 08:53:34;;;;;;;87.85;45.38;;;;;;;;;;5110649;28;20011;-76
2022/03/16 08:56:01;;;;;;;77.38;49.13;;;;;;;;;;5117731;28;20102;-76
2022/03/16 08:58:27;;;;;;;74.97;52.08;;;;;;;;;;5113518;28;20485;-78
2022/03/16 09:00:53;;;;;;;98.97;55.58;;;;;;;;;;5093721;28;20066;-76
2022/03/16 09:03:20;;;;;;;69.60;50.97;;;;;;;;;;5093637;28;20020;-75
2022/03/16 09:05:46;;;;;;;77.68;53.00;;;;;;;;;;5094349;28;20019;-77
2022/03/16 09:08:12;;;;;;;72.85;49.30;;;;;;;;;;5097835;28;20347;-76
2022/03/16 09:10:38;;;;;;;76.75;45.75;;;;;;;;;;5115625;28;20027;-78
2022/03/16 09:13:05;;;;;;;66.45;47.70;;;;;;;;;;5115603;28;20034;-78
2022/03/16 09:15:31;;;;;;;59.53;44.45;;;;;;;;;;5116350;27;20485;-77
2022/03/16 09:17:57;;;;;;;77.22;52.67;;;;;;;;;;5099344;28;20385;-76
2022/03/16 09:20:24;;;;;;;68.32;42.60;;;;;;;;;;5119387;27;20031;-79
2022/03/16 09:22:50;;;;;;;66.25;43.13;;;;;;;;;;5120295;27;20055;-77
2022/03/16 09:25:16;;;;;;;68.38;41.30;;;;;;;;;;5096622;28;20022;-77
2022/03/16 09:27:42;;;;;;;71.78;42.22;;;;;;;;;;5095034;27;20019;-79
2022/03/16 09:30:08;;;;;;;71.50;42.22;;;;;;;;;;5114104;27;20150;-78
2022/03/16 09:32:35;;;;;;;65.65;40.08;;;;;;;;;;5115314;28;20019;-79
2022/03/16 09:35:01;;;;;;;66.30;39.83;;;;;;;;;;5115499;28;20051;-76
2022/03/16 09:37:27;;;;;;;72.93;38.53;;;;;;;;;;5118006;27;20032;-78
2022/03/16 09:39:53;;;;;;;45.85;28.35;;;;;;;;;;5115446;28;20134;-78
2022/03/16 09:42:23;;;;;;;56.33;33.88;;;;;;;;;;5115686;28;20012;-77
2022/03/16 09:44:51;;;;;;;55.95;34.35;;;;;;;;;;5099034;28;20077;-76
2022/03/16 09:47:18;;;;;;;44.63;30.02;;;;;;;;;;5119065;27;20031;-77
2022/03/16 09:49:45;;;;;;;44.17;28.00;;;;;;;;;;5126469;27;20019;-79
2022/03/16 09:52:11;;;;;;;58.30;30.40;;;;;;;;;;5134553;27;20024;-76
2022/03/16 09:54:37;;;;;;;41.28;26.85;;;460.90;1228.80;;;;;;5135362;27;20023;-77
2022/03/16 09:57:03;;;;;;;35.38;18.83;;;460.80;1228.80;;;;;;5104173;27;20027;-77
2022/03/16 09:59:29;;;;;;;26.55;15.02;;;435.90;1100.80;;;;;;5118490;27;20382;-76
2022/03/16 10:02:07;;;;;;;23.08;11.38;;;435.40;1100.80;;;;;;5104973;27;20063;-76
2022/03/16 10:04:35;;;;;;;29.73;17.48;;;435.60;1049.60;;;;;;5110898;28;20028;-78
2022/03/16 10:07:01;;;;;;;22.63;12.55;;;435.50;1075.20;;;;;;5096380;28;20032;-76
2022/03/16 10:15:11;;;;;;;29.13;12.23;;;435.40;1049.60;;;;;;5118961;27;20061;-76
2022/03/16 10:17:45;;;;;;;24.15;12.35;;;435.70;1049.60;;;;;;5123355;27;20035;-79
2022/03/16 10:20:32;;;;;;;15.48;9.90;;;435.70;1049.60;;;;;;5115698;27;20039;-77
2022/03/16 10:23:13;;;;;;;17.45;9.80;;;435.70;1049.60;;;;;;5135176;27;20031;-76
2022/03/16 10:25:38;;;;;;;26.67;12.57;;;435.90;1024.00;;;;;;5101897;28;20111;-76
2022/03/16 10:28:11;;;;;;;34.67;16.50;;;435.80;1049.60;;;;;;5114236;28;20103;-77
2022/03/16 10:30:58;;;;;;;28.13;15.90;;;436.10;1024.00;;;;;;5114021;27;20027;-77
2022/03/16 10:33:25;;;;;;;37.25;17.88;;;435.90;1049.60;;;;;;5096278;28;20028;-79
2022/03/16 10:36:04;;;;;;;21.80;10.65;;;460.90;1049.60;;;;;;5114745;28;20077;-79
2022/03/16 10:38:38;;;;;;;32.33;13.07;;;435.80;1024.00;;;;;;5094561;28;20058;-78
2022/03/16 10:41:12;;;;;;;18.88;9.80;;;436.00;1024.00;;;;;;5121124;27;20088;-75
2022/03/16 10:46:35;;;;;;;18.67;11.43;;;461.00;1049.60;;;;;;5116694;27;20081;-77
2022/03/16 10:49:10;;;;;;;27.50;12.82;;;461.20;1024.00;;;;;;5114065;28;20138;-76
2022/03/16 10:51:36;;;;;;;26.77;14.73;;;461.60;1024.00;;;;;;5113375;28;20024;-76
2022/03/16 10:54:04;;;;;;;32.47;13.80;;;;;;;;;;5113573;28;20027;-78
2022/03/16 10:56:31;;;;;;;29.35;15.85;;;;;;;;;;5114881;28;20016;-77
2022/03/16 10:58:58;;;;;;;24.63;10.95;;;;;;;;;;5114521;28;20030;-76
2022/03/16 11:01:26;;;;;;;32.65;13.07;;;;;;;;;;5113498;28;20402;-78
2022/03/16 11:03:53;;;;;;;16.52;10.40;;;;;;;;;;5113365;28;20092;-78
2022/03/16 11:06:23;;;;;;;20.92;8.38;;;;;;;;;;5114453;28;20023;-77
2022/03/16 11:08:50;;;;;;;18.88;6.75;;;;;;;;;;5095458;28;20027;-78
2022/03/16 11:14:03;;;;;;;18.05;9.63;;;;;;;;;;5113318;28;20421;-79
2022/03/16 11:16:29;;;;;;;13.45;5.18;;;;;;;;;;5114251;28;20016;-78
2022/03/16 11:18:56;;;;;;;19.77;6.35;;;;;;;;;;5133503;27;20016;-79
2022/03/16 11:21:27;;;;;;;10.80;6.93;;;;;;;;;;5134157;27;20118;-77
2022/03/16 11:27:02;;;;;;;13.23;6.30;;;;;;;;;;5115381;27;20073;-79
2022/03/16 11:29:47;;;;;;;15.73;6.32;;;;;;;;;;5114730;27;20036;-79
2022/03/16 11:32:15;;;;;;;10.43;5.95;;;;;;;;;;5134140;27;20023;-78
2022/03/16 11:34:59;;;;;;;17.48;8.10;;;;;;;;;;5134978;27;20011;-76
2022/03/16 11:37:39;;;;;;;33.63;15.05;;;;;;;;;;5117014;27;20109;-80
2022/03/16 11:40:24;;;;;;;27.10;10.82;;;;;;;;;;5133755;27;20493;-78
2022/03/16 11:43:11;;;;;;;24.92;10.35;;;;;;;;;;5115093;27;20052;-77
2022/03/16 11:45:37;;;;;;;41.00;15.70;;;;;;;;;;5114831;27;20103;-80
2022/03/16 11:48:22;;;;;;;17.88;5.93;;;;;;;;;;5133374;27;20027;-76
2022/03/16 11:51:07;;;;;;;35.95;13.88;;;435.60;1100.80;;;;;;5114982;27;20034;-77
2022/03/16 11:53:54;;;;;;;40.08;17.05;;;435.30;1126.40;;;;;;5114975;27;20023;-76
2022/03/16 11:56:36;;;;;;;24.92;11.70;;;435.50;1152.00;;;;;;5132958;27;20019;-76
2022/03/16 11:59:16;;;;;;;26.17;11.85;;;435.30;1177.60;;;;;;5133288;27;20038;-77
2022/03/16 12:01:48;;;;;;;57.13;19.27;;;410.40;1203.20;;;;;;5118714;27;20055;-75
2022/03/16 12:04:31;;;;;;;34.60;15.85;;;435.20;1177.60;;;;;;5112413;28;20066;-75
2022/03/16 12:07:02;;;;;;;46.72;19.27;;;435.20;1177.60;;;;;;5114206;28;20058;-77
2022/03/16 12:09:44;;;;;;;26.63;10.23;;;410.20;1228.80;;;;;;5112396;28;20027;-79
2022/03/16 12:14:56;;;;;;;25.45;12.60;;;409.80;1280.00;;;;;;5111992;28;20108;-76
2022/03/16 12:17:22;;;;;;;19.42;8.40;;;409.70;1280.00;;;;;;5112439;28;20024;-76
2022/03/16 12:20:10;;;;;;;30.25;12.00;;;384.70;1254.40;;;;;;5094032;28;20040;-78
2022/03/16 12:22:47;;;;;;;25.05;11.70;;;384.70;1254.40;;;;;;5112443;28;20028;-79
2022/03/16 12:25:27;;;;;;;22.60;11.40;;;384.50;1280.00;;;;;;5112409;28;20112;-78
2022/03/16 12:30:54;;;;;;;38.45;17.30;;;384.80;1228.80;;;;;;5111970;28;20085;-78
2022/03/16 12:33:25;;;;;;;21.02;10.90;;;;;;;;;;5112318;28;20055;-79
2022/03/16 12:35:52;;;;;;;28.17;10.73;;;;;;;;;;5111622;28;20028;-78
2022/03/16 12:38:19;;;;;;;22.23;14.57;;;;;;;;;;5092971;28;20466;-78
2022/03/16 12:43:31;;;;;;;30.42;13.88;;;;;;;;;;5112276;28;20485;-79
2022/03/16 12:46:09;;;;;;;31.98;14.73;;;;;;;;;;5111991;28;20027;-78
2022/03/16 12:48:36;;;;;;;26.80;16.13;;;;;;;;;;5111724;28;20030;-79
2022/03/16 12:51:02;;;;;;;27.48;10.80;;;;;;;;;;5093576;28;20016;-77
2022/03/16 12:53:39;;;;;;;19.30;9.75;;;;;;;;;;5112109;28;20020;-78
2022/03/16 12:56:10;;;;;;;30.98;15.40;;;;;;;;;;5111845;28;20355;-79
2022/03/16 12:58:37;;;;;;;26.35;13.15;;;;;;;;;;5111711;28;20023;-79
2022/03/16 13:01:03;;;;;;;45.92;14.95;;;;;;;;;;5111907;28;20028;-77
2022/03/16 13:03:29;;;;;;;23.38;12.23;;;;;;;;;;5111927;28;20020;-78
2022/03/16 13:05:55;;;;;;;30.05;16.25;;;;;;;;;;5111968;28;20105;-79
2022/03/16 13:08:23;;;;;;;26.67;12.35;;;;;;;;;;5095753;28;20468;-77
2022/03/16 13:11:14;;;;;;;25.55;11.93;;;;;;;;;;5112026;28;20016;-77
2022/03/16 13:13:44;;;;;;;22.48;13.30;;;;;;;;;;5093511;28;20015;-77
2022/03/16 13:16:10;;;;;;;22.25;11.60;;;;;;;;;;5095891;28;20389;-78
2022/03/16 13:18:36;;;;;;;28.08;17.75;;;;;;;;;;5093608;28;20458;-78
2022/03/16 13:21:22;;;;;;;36.88;17.75;;;;;;;;;;5111234;28;20486;-79
2022/03/16 13:23:48;;;;;;;31.75;15.30;;;;;;;;;;5093741;28;20408;-79
2022/03/16 13:26:15;;;;;;;15.85;8.95;;;;;;;;;;5111668;28;20011;-79
2022/03/16 13:28:43;;;;;;;31.08;14.27;;;;;;;;;;5117848;28;20145;-78
2022/03/16 13:31:09;;;;;;;30.77;18.20;;;;;;;;;;5113803;28;20386;-78
2022/03/16 13:33:35;;;;;;;23.55;12.60;;;;;;;;;;5130229;28;20015;-77
2022/03/16 13:36:11;;;;;;;29.85;14.05;;;;;;;;;;5111907;28;20026;-76
2022/03/16 13:38:37;;;;;;;30.35;14.10;;;;;;;;;;5111772;28;20052;-77
2022/03/16 13:41:13;;;;;;;34.53;16.35;;;;;;;;;;5111499;28;20038;-79
2022/03/16 13:43:39;;;;;;;31.20;12.57;;;;;;;;;;5111270;28;20098;-77
2022/03/16 13:46:13;;;;;;;26.08;14.57;;;;;;;;;;5093437;28;20116;-78
2022/03/16 13:48:40;;;;;;;29.90;14.55;;;;;;;;;;5111452;28;20407;-77
2022/03/16 13:51:07;;;;;;;25.40;14.50;;;;;;;;;;5093413;28;20024;-77
2022/03/16 13:53:43;;;;;;;32.40;17.38;;;;;;;;;;5112677;28;20127;-79
2022/03/16 13:56:13;;;;;;;25.25;15.68;;;;;;;;;;5115057;28;20471;-77
2022/03/16 13:58:40;;;;;;;29.92;19.02;;;;;;;;;;5114843;28;20028;-80
2022/03/16 14:01:06;;;;;;;33.72;16.30;;;;;;;;;;5096644;28;20375;-77
2022/03/16 14:03:33;;;;;;;32.72;19.48;;;;;;;;;;5096686;28;20444;-77
2022/03/16 14:06:00;;;;;;;54.00;22.23;;;;;;;;;;5115083;28;20271;-79
2022/03/16 14:08:26;;;;;;;60.58;20.05;;;;;;;;;;5096572;28;20134;-78
2022/03/16 14:10:57;;;;;;;40.35;23.23;;;;;;;;;;5114842;28;20023;-77
2022/03/16 14:13:23;;;;;;;60.15;27.40;;;;;;;;;;5114685;28;20020;-76
2022/03/16 14:15:50;;;;;;;42.63;25.02;;;;;;;;;;5114263;28;20062;-78
2022/03/16 14:18:17;;;;;;;46.47;27.25;;;;;;;;;;5114516;28;20523;-76
2022/03/16 14:20:43;;;;;;;53.05;25.70;;;;;;;;;;5096272;28;20085;-76